sensor_id;sensor_type;location;lat;lon;timestamp;pressure;altitude;pressure_sealevel;temperature;humidity
8705;BME280;4389;41.932;25.904;2022-12-18T00:02:15;101144.41;;;11.43;100.00
8705;BME280;4389;41.932;25.904;2022-12-18T00:04:42;101158.91;;;11.28;100.00
8705;BME280;4389;41.932;25.904;2022-12-18T00:07:10;101156.38;;;11.37;100.00
8705;BME280;4389;41.932;25.904;2022-12-18T00:09:37;101158.72;;;11.51;100.00
8705;BME280;4389;41.932;25.904;2022-12-18T00:12:05;101149.56;;;11.55;100.00
8705;BME280;4389;41.932;25.904;2022-12-18T00:14:31;101168.50;;;11.51;100.00
8705;BME280;4389;41.932;25.904;2022-12-18T00:16:58;101174.63;;;11.51;100.00
8705;BME280;4389;41.932;25.904;2022-12-18T00:19:27;101170.28;;;11.61;100.00
8705;BME280;4389;41.932;25.904;2022-12-18T00:21:54;101180.28;;;11.58;100.00
8705;BME280;4389;41.932;25.904;2022-12-18T00:24:22;101181.03;;;11.49;100.00
8705;BME280;4389;41.932;25.904;2022-12-18T00:26:49;101180.91;;;11.39;100.00
8705;BME280;4389;41.932;25.904;2022-12-18T00:29:15;101178.00;;;11.53;100.00
8705;BME280;4389;41.932;25.904;2022-12-18T00:31:43;101189.13;;;11.47;100.00
8705;BME280;4389;41.932;25.904;2022-12-18T00:34:11;101197.66;;;11.40;100.00
8705;BME280;4389;41.932;25.904;2022-12-18T00:36:39;101202.25;;;11.38;100.00
8705;BME280;4389;41.932;25.904;2022-12-18T00:39:06;101194.19;;;11.28;100.00
8705;BME280;4389;41.932;25.904;2022-12-18T00:41:34;101191.88;;;11.46;100.00
8705;BME280;4389;41.932;25.904;2022-12-18T00:44:19;101193.94;;;11.42;100.00
8705;BME280;4389;41.932;25.904;2022-12-18T00:46:47;101195.25;;;11.48;100.00
8705;BME280;4389;41.932;25.904;2022-12-18T00:49:15;101183.28;;;11.53;100.00
8705;BME280;4389;41.932;25.904;2022-12-18T00:51:42;101187.66;;;11.43;100.00
8705;BME280;4389;41.932;25.904;2022-12-18T00:54:09;101189.34;;;11.44;100.00
8705;BME280;4389;41.932;25.904;2022-12-18T00:56:38;101188.16;;;11.37;100.00
8705;BME280;4389;41.932;25.904;2022-12-18T00:59:05;101193.13;;;11.31;100.00
8705;BME280;4389;41.932;25.904;2022-12-18T01:01:32;101192.75;;;11.24;100.00
8705;BME280;4389;41.932;25.904;2022-12-18T01:04:00;101190.34;;;11.21;100.00
8705;BME280;4389;41.932;25.904;2022-12-18T01:06:27;101194.94;;;11.19;100.00
8705;BME280;4389;41.932;25.904;2022-12-18T01:08:55;101196.16;;;11.26;100.00
8705;BME280;4389;41.932;25.904;2022-12-18T01:11:22;101186.47;;;11.36;100.00
8705;BME280;4389;41.932;25.904;2022-12-18T01:13:51;101184.75;;;11.46;100.00
8705;BME280;4389;41.932;25.904;2022-12-18T01:16:18;101189.81;;;11.49;100.00
8705;BME280;4389;41.932;25.904;2022-12-18T01:18:45;101187.63;;;11.54;100.00
8705;BME280;4389;41.932;25.904;2022-12-18T01:21:14;101180.63;;;11.53;100.00
8705;BME280;4389;41.932;25.904;2022-12-18T01:23:41;101185.47;;;11.59;100.00
8705;BME280;4389;41.932;25.904;2022-12-18T01:26:10;101183.78;;;11.69;100.00
8705;BME280;4389;41.932;25.904;2022-12-18T01:28:38;101188.81;;;11.72;100.00
8705;BME280;4389;41.932;25.904;2022-12-18T01:31:15;101188.50;;;11.66;100.00
8705;BME280;4389;41.932;25.904;2022-12-18T01:33:42;101193.63;;;11.78;100.00
8705;BME280;4389;41.932;25.904;2022-12-18T01:36:15;101199.69;;;11.69;100.00
8705;BME280;4389;41.932;25.904;2022-12-18T01:38:42;101193.34;;;11.81;100.00
8705;BME280;4389;41.932;25.904;2022-12-18T01:41:09;101193.63;;;11.78;100.00
8705;BME280;4389;41.932;25.904;2022-12-18T01:43:48;101202.28;;;11.80;100.00
8705;BME280;4389;41.932;25.904;2022-12-18T01:46:20;101198.16;;;11.87;100.00
8705;BME280;4389;41.932;25.904;2022-12-18T01:48:49;101201.41;;;11.91;100.00
8705;BME280;4389;41.932;25.904;2022-12-18T01:51:17;101199.47;;;11.93;100.00
8705;BME280;4389;41.932;25.904;2022-12-18T01:53:45;101201.56;;;11.78;100.00
8705;BME280;4389;41.932;25.904;2022-12-18T01:56:14;101202.06;;;11.72;100.00
8705;BME280;4389;41.932;25.904;2022-12-18T01:58:48;101206.78;;;11.69;100.00
8705;BME280;4389;41.932;25.904;2022-12-18T02:01:20;101201.59;;;11.67;100.00
8705;BME280;4389;41.932;25.904;2022-12-18T02:03:48;101188.22;;;11.69;100.00
8705;BME280;4389;41.932;25.904;2022-12-18T02:06:17;101192.81;;;11.67;100.00
8705;BME280;4389;41.932;25.904;2022-12-18T02:08:58;101198.50;;;11.62;100.00
8705;BME280;4389;41.932;25.904;2022-12-18T02:11:37;101200.91;;;11.65;100.00
8705;BME280;4389;41.932;25.904;2022-12-18T02:14:14;101196.19;;;11.69;100.00
8705;BME280;4389;41.932;25.904;2022-12-18T02:16:49;101196.66;;;11.74;100.00
8705;BME280;4389;41.932;25.904;2022-12-18T02:19:39;101190.47;;;11.84;100.00
8705;BME280;4389;41.932;25.904;2022-12-18T02:22:21;101194.00;;;11.74;100.00
8705;BME280;4389;41.932;25.904;2022-12-18T02:24:59;101196.50;;;11.75;100.00
8705;BME280;4389;41.932;25.904;2022-12-18T02:27:30;101200.34;;;11.82;100.00
8705;BME280;4389;41.932;25.904;2022-12-18T02:29:59;101210.44;;;11.88;100.00
8705;BME280;4389;41.932;25.904;2022-12-18T02:32:40;101213.31;;;11.96;100.00
8705;BME280;4389;41.932;25.904;2022-12-18T02:35:14;101204.91;;;11.91;100.00
8705;BME280;4389;41.932;25.904;2022-12-18T02:37:43;101211.25;;;12.00;100.00
8705;BME280;4389;41.932;25.904;2022-12-18T02:40:12;101216.19;;;12.04;100.00
8705;BME280;4389;41.932;25.904;2022-12-18T02:42:41;101217.69;;;11.86;100.00
8705;BME280;4389;41.932;25.904;2022-12-18T02:45:09;101220.38;;;11.75;100.00
8705;BME280;4389;41.932;25.904;2022-12-18T02:47:39;101231.25;;;11.72;100.00
8705;BME280;4389;41.932;25.904;2022-12-18T02:50:12;101242.09;;;11.69;100.00
8705;BME280;4389;41.932;25.904;2022-12-18T02:52:47;101242.34;;;11.66;100.00
8705;BME280;4389;41.932;25.904;2022-12-18T02:55:27;101244.16;;;11.66;100.00
8705;BME280;4389;41.932;25.904;2022-12-18T02:58:01;101242.44;;;11.76;100.00
8705;BME280;4389;41.932;25.904;2022-12-18T03:00:35;101245.69;;;11.68;100.00
8705;BME280;4389;41.932;25.904;2022-12-18T03:03:08;101251.94;;;11.78;100.00
8705;BME280;4389;41.932;25.904;2022-12-18T03:05:40;101245.06;;;11.87;100.00
8705;BME280;4389;41.932;25.904;2022-12-18T03:08:14;101251.56;;;11.83;100.00
8705;BME280;4389;41.932;25.904;2022-12-18T03:10:48;101252.72;;;11.69;100.00
8705;BME280;4389;41.932;25.904;2022-12-18T03:13:20;101256.88;;;11.72;100.00
8705;BME280;4389;41.932;25.904;2022-12-18T03:15:52;101249.53;;;11.75;100.00
8705;BME280;4389;41.932;25.904;2022-12-18T03:18:24;101247.03;;;11.74;100.00
8705;BME280;4389;41.932;25.904;2022-12-18T03:20:53;101248.81;;;11.84;100.00
8705;BME280;4389;41.932;25.904;2022-12-18T03:23:25;101251.69;;;11.81;100.00
8705;BME280;4389;41.932;25.904;2022-12-18T03:25:58;101259.25;;;11.86;100.00
8705;BME280;4389;41.932;25.904;2022-12-18T03:28:28;101255.69;;;11.87;100.00
8705;BME280;4389;41.932;25.904;2022-12-18T03:30:58;101261.81;;;11.87;100.00
8705;BME280;4389;41.932;25.904;2022-12-18T03:33:30;101261.56;;;11.90;100.00
8705;BME280;4389;41.932;25.904;2022-12-18T03:35:58;101270.22;;;11.92;100.00
8705;BME280;4389;41.932;25.904;2022-12-18T03:38:25;101273.84;;;11.91;100.00
8705;BME280;4389;41.932;25.904;2022-12-18T03:40:58;101279.38;;;11.99;100.00
8705;BME280;4389;41.932;25.904;2022-12-18T03:43:38;101277.53;;;12.00;100.00
8705;BME280;4389;41.932;25.904;2022-12-18T03:46:10;101287.16;;;12.12;100.00
8705;BME280;4389;41.932;25.904;2022-12-18T03:48:44;101298.56;;;12.23;100.00
8705;BME280;4389;41.932;25.904;2022-12-18T03:51:20;101301.19;;;12.03;100.00
8705;BME280;4389;41.932;25.904;2022-12-18T03:53:54;101297.91;;;12.10;100.00
8705;BME280;4389;41.932;25.904;2022-12-18T03:56:24;101305.53;;;12.04;100.00
8705;BME280;4389;41.932;25.904;2022-12-18T03:58:55;101304.66;;;12.03;100.00
8705;BME280;4389;41.932;25.904;2022-12-18T04:01:26;101310.56;;;12.07;100.00
8705;BME280;4389;41.932;25.904;2022-12-18T04:03:56;101313.81;;;12.10;100.00
8705;BME280;4389;41.932;25.904;2022-12-18T04:06:23;101316.72;;;12.07;100.00
8705;BME280;4389;41.932;25.904;2022-12-18T04:08:50;101317.22;;;12.01;100.00
8705;BME280;4389;41.932;25.904;2022-12-18T04:11:18;101324.94;;;12.04;100.00
8705;BME280;4389;41.932;25.904;2022-12-18T04:13:44;101320.38;;;11.95;100.00
8705;BME280;4389;41.932;25.904;2022-12-18T04:16:13;101322.69;;;11.89;100.00
8705;BME280;4389;41.932;25.904;2022-12-18T04:18:39;101326.53;;;11.85;100.00
8705;BME280;4389;41.932;25.904;2022-12-18T04:21:06;101329.81;;;11.77;100.00
8705;BME280;4389;41.932;25.904;2022-12-18T04:23:33;101336.81;;;11.78;100.00
8705;BME280;4389;41.932;25.904;2022-12-18T04:26:00;101335.13;;;11.77;100.00
8705;BME280;4389;41.932;25.904;2022-12-18T04:28:27;101345.47;;;11.80;100.00
8705;BME280;4389;41.932;25.904;2022-12-18T04:30:54;101348.81;;;11.82;100.00
8705;BME280;4389;41.932;25.904;2022-12-18T04:33:22;101339.78;;;11.85;100.00
8705;BME280;4389;41.932;25.904;2022-12-18T04:35:49;101338.00;;;11.85;100.00
8705;BME280;4389;41.932;25.904;2022-12-18T04:38:16;101347.16;;;11.81;100.00
8705;BME280;4389;41.932;25.904;2022-12-18T04:40:43;101341.50;;;11.75;100.00
8705;BME280;4389;41.932;25.904;2022-12-18T04:43:10;101344.41;;;11.61;100.00
8705;BME280;4389;41.932;25.904;2022-12-18T04:45:36;101350.91;;;11.68;100.00
8705;BME280;4389;41.932;25.904;2022-12-18T04:48:04;101342.59;;;11.72;100.00
8705;BME280;4389;41.932;25.904;2022-12-18T04:50:32;101348.38;;;11.66;100.00
8705;BME280;4389;41.932;25.904;2022-12-18T04:52:59;101352.34;;;11.72;100.00
8705;BME280;4389;41.932;25.904;2022-12-18T04:55:26;101355.84;;;11.72;100.00
8705;BME280;4389;41.932;25.904;2022-12-18T04:57:53;101359.44;;;11.82;100.00
8705;BME280;4389;41.932;25.904;2022-12-18T05:00:20;101350.28;;;11.75;100.00
8705;BME280;4389;41.932;25.904;2022-12-18T05:02:48;101350.75;;;11.80;100.00
8705;BME280;4389;41.932;25.904;2022-12-18T05:05:15;101355.25;;;11.80;100.00
8705;BME280;4389;41.932;25.904;2022-12-18T05:07:43;101365.94;;;11.89;100.00
8705;BME280;4389;41.932;25.904;2022-12-18T05:10:10;101355.59;;;11.86;100.00
8705;BME280;4389;41.932;25.904;2022-12-18T05:12:37;101364.03;;;11.91;100.00
8705;BME280;4389;41.932;25.904;2022-12-18T05:15:23;101368.72;;;11.88;100.00
8705;BME280;4389;41.932;25.904;2022-12-18T05:17:50;101375.94;;;11.86;100.00
8705;BME280;4389;41.932;25.904;2022-12-18T05:20:17;101374.84;;;11.88;100.00
8705;BME280;4389;41.932;25.904;2022-12-18T05:22:46;101380.91;;;11.79;100.00
8705;BME280;4389;41.932;25.904;2022-12-18T05:25:13;101388.16;;;11.77;100.00
8705;BME280;4389;41.932;25.904;2022-12-18T05:27:40;101395.13;;;11.78;100.00
8705;BME280;4389;41.932;25.904;2022-12-18T05:30:08;101391.28;;;11.71;100.00
8705;BME280;4389;41.932;25.904;2022-12-18T05:32:35;101402.59;;;11.73;100.00
8705;BME280;4389;41.932;25.904;2022-12-18T05:35:03;101404.28;;;11.74;100.00
8705;BME280;4389;41.932;25.904;2022-12-18T05:37:30;101409.69;;;11.84;100.00
8705;BME280;4389;41.932;25.904;2022-12-18T05:39:59;101406.94;;;11.74;100.00
8705;BME280;4389;41.932;25.904;2022-12-18T05:42:25;101411.41;;;11.74;100.00
8705;BME280;4389;41.932;25.904;2022-12-18T05:44:53;101412.00;;;11.77;100.00
8705;BME280;4389;41.932;25.904;2022-12-18T05:47:20;101430.31;;;11.80;100.00
8705;BME280;4389;41.932;25.904;2022-12-18T05:49:47;101432.13;;;11.80;100.00
8705;BME280;4389;41.932;25.904;2022-12-18T05:52:14;101440.19;;;11.78;100.00
8705;BME280;4389;41.932;25.904;2022-12-18T05:54:41;101438.28;;;11.69;100.00
8705;BME280;4389;41.932;25.904;2022-12-18T05:57:09;101445.50;;;11.78;100.00
8705;BME280;4389;41.932;25.904;2022-12-18T05:59:36;101447.16;;;11.68;100.00
8705;BME280;4389;41.932;25.904;2022-12-18T06:02:03;101456.34;;;11.64;100.00
8705;BME280;4389;41.932;25.904;2022-12-18T06:04:30;101450.31;;;11.62;100.00
8705;BME280;4389;41.932;25.904;2022-12-18T06:06:57;101456.09;;;11.67;100.00
8705;BME280;4389;41.932;25.904;2022-12-18T06:09:24;101456.47;;;11.74;100.00
8705;BME280;4389;41.932;25.904;2022-12-18T06:11:52;101463.22;;;11.67;100.00
8705;BME280;4389;41.932;25.904;2022-12-18T06:14:20;101474.19;;;11.62;100.00
8705;BME280;4389;41.932;25.904;2022-12-18T06:16:47;101475.63;;;11.66;100.00
8705;BME280;4389;41.932;25.904;2022-12-18T06:19:15;101479.13;;;11.67;100.00
8705;BME280;4389;41.932;25.904;2022-12-18T06:21:43;101489.00;;;11.76;100.00
8705;BME280;4389;41.932;25.904;2022-12-18T06:24:10;101488.03;;;11.77;100.00
8705;BME280;4389;41.932;25.904;2022-12-18T06:26:37;101497.81;;;11.76;100.00
8705;BME280;4389;41.932;25.904;2022-12-18T06:29:04;101497.56;;;11.79;100.00
8705;BME280;4389;41.932;25.904;2022-12-18T06:31:32;101513.00;;;11.85;100.00
8705;BME280;4389;41.932;25.904;2022-12-18T06:34:02;101516.38;;;11.87;100.00
8705;BME280;4389;41.932;25.904;2022-12-18T06:36:29;101525.91;;;11.90;100.00
8705;BME280;4389;41.932;25.904;2022-12-18T06:38:57;101536.50;;;11.90;100.00
8705;BME280;4389;41.932;25.904;2022-12-18T06:41:24;101533.50;;;11.94;100.00
8705;BME280;4389;41.932;25.904;2022-12-18T06:43:51;101542.19;;;11.96;100.00
8705;BME280;4389;41.932;25.904;2022-12-18T06:46:17;101547.72;;;11.93;100.00
8705;BME280;4389;41.932;25.904;2022-12-18T06:48:48;101550.50;;;11.92;100.00
8705;BME280;4389;41.932;25.904;2022-12-18T06:51:19;101545.59;;;11.98;100.00
8705;BME280;4389;41.932;25.904;2022-12-18T06:53:46;101551.25;;;11.94;100.00
8705;BME280;4389;41.932;25.904;2022-12-18T06:56:13;101558.34;;;11.93;100.00
8705;BME280;4389;41.932;25.904;2022-12-18T06:58:40;101557.75;;;12.01;100.00
8705;BME280;4389;41.932;25.904;2022-12-18T07:01:10;101567.53;;;12.00;100.00
8705;BME280;4389;41.932;25.904;2022-12-18T07:03:37;101587.06;;;11.99;100.00
8705;BME280;4389;41.932;25.904;2022-12-18T07:06:06;101580.31;;;12.06;100.00
8705;BME280;4389;41.932;25.904;2022-12-18T07:08:33;101580.91;;;12.10;100.00
8705;BME280;4389;41.932;25.904;2022-12-18T07:11:03;101586.22;;;12.10;100.00
8705;BME280;4389;41.932;25.904;2022-12-18T07:13:30;101583.19;;;12.03;100.00
8705;BME280;4389;41.932;25.904;2022-12-18T07:16:04;101589.00;;;12.08;100.00
8705;BME280;4389;41.932;25.904;2022-12-18T07:18:31;101598.63;;;11.98;100.00
8705;BME280;4389;41.932;25.904;2022-12-18T07:20:57;101599.31;;;11.89;100.00
8705;BME280;4389;41.932;25.904;2022-12-18T07:23:26;101608.00;;;11.91;100.00
8705;BME280;4389;41.932;25.904;2022-12-18T07:25:52;101606.09;;;11.93;100.00
8705;BME280;4389;41.932;25.904;2022-12-18T07:28:19;101611.63;;;11.90;100.00
8705;BME280;4389;41.932;25.904;2022-12-18T07:30:46;101619.09;;;11.96;100.00
8705;BME280;4389;41.932;25.904;2022-12-18T07:33:13;101621.19;;;12.04;100.00
8705;BME280;4389;41.932;25.904;2022-12-18T07:35:40;101621.78;;;12.07;100.00
8705;BME280;4389;41.932;25.904;2022-12-18T07:38:07;101627.56;;;12.01;100.00
8705;BME280;4389;41.932;25.904;2022-12-18T07:40:36;101628.44;;;12.13;100.00
8705;BME280;4389;41.932;25.904;2022-12-18T07:43:02;101633.38;;;12.06;100.00
8705;BME280;4389;41.932;25.904;2022-12-18T07:45:29;101636.03;;;12.06;100.00
8705;BME280;4389;41.932;25.904;2022-12-18T07:47:56;101635.31;;;12.04;100.00
8705;BME280;4389;41.932;25.904;2022-12-18T07:50:23;101641.59;;;12.14;100.00
8705;BME280;4389;41.932;25.904;2022-12-18T07:52:50;101646.03;;;12.14;100.00
8705;BME280;4389;41.932;25.904;2022-12-18T07:55:17;101644.47;;;12.11;100.00
8705;BME280;4389;41.932;25.904;2022-12-18T07:57:45;101649.03;;;12.09;100.00
8705;BME280;4389;41.932;25.904;2022-12-18T08:00:13;101656.28;;;12.07;100.00
8705;BME280;4389;41.932;25.904;2022-12-18T08:02:40;101666.38;;;12.02;100.00
8705;BME280;4389;41.932;25.904;2022-12-18T08:05:08;101674.78;;;11.96;100.00
8705;BME280;4389;41.932;25.904;2022-12-18T08:07:35;101680.72;;;12.00;100.00
8705;BME280;4389;41.932;25.904;2022-12-18T08:10:02;101679.19;;;12.08;100.00
8705;BME280;4389;41.932;25.904;2022-12-18T08:12:29;101686.19;;;12.09;100.00
8705;BME280;4389;41.932;25.904;2022-12-18T08:14:57;101680.75;;;12.11;100.00
8705;BME280;4389;41.932;25.904;2022-12-18T08:17:24;101684.03;;;12.14;100.00
8705;BME280;4389;41.932;25.904;2022-12-18T08:19:51;101684.66;;;12.18;100.00
8705;BME280;4389;41.932;25.904;2022-12-18T08:22:17;101683.56;;;12.20;100.00
8705;BME280;4389;41.932;25.904;2022-12-18T08:24:44;101689.13;;;12.28;100.00
8705;BME280;4389;41.932;25.904;2022-12-18T08:27:11;101690.00;;;12.40;100.00
8705;BME280;4389;41.932;25.904;2022-12-18T08:29:38;101680.72;;;12.34;100.00
8705;BME280;4389;41.932;25.904;2022-12-18T08:32:06;101686.75;;;12.36;100.00
8705;BME280;4389;41.932;25.904;2022-12-18T08:34:33;101690.38;;;12.35;100.00
8705;BME280;4389;41.932;25.904;2022-12-18T08:37:00;101693.47;;;12.29;100.00
8705;BME280;4389;41.932;25.904;2022-12-18T08:39:27;101697.56;;;12.22;100.00
8705;BME280;4389;41.932;25.904;2022-12-18T08:41:54;101700.19;;;12.11;100.00
8705;BME280;4389;41.932;25.904;2022-12-18T08:44:37;101703.22;;;12.18;100.00
8705;BME280;4389;41.932;25.904;2022-12-18T08:47:05;101703.78;;;12.10;100.00
8705;BME280;4389;41.932;25.904;2022-12-18T08:49:33;101708.25;;;12.10;100.00
8705;BME280;4389;41.932;25.904;2022-12-18T08:52:01;101715.34;;;11.98;100.00
8705;BME280;4389;41.932;25.904;2022-12-18T08:54:29;101709.56;;;12.04;100.00
8705;BME280;4389;41.932;25.904;2022-12-18T08:56:56;101715.34;;;11.98;100.00
8705;BME280;4389;41.932;25.904;2022-12-18T08:59:23;101712.16;;;11.93;100.00
8705;BME280;4389;41.932;25.904;2022-12-18T09:01:50;101712.16;;;11.93;99.20
8705;BME280;4389;41.932;25.904;2022-12-18T09:04:16;101695.03;;;11.86;99.88
8705;BME280;4389;41.932;25.904;2022-12-18T09:06:45;101701.19;;;11.87;99.75
8705;BME280;4389;41.932;25.904;2022-12-18T09:09:12;101693.84;;;11.90;99.31
8705;BME280;4389;41.932;25.904;2022-12-18T09:11:39;101687.59;;;11.91;99.24
8705;BME280;4389;41.932;25.904;2022-12-18T09:14:06;101689.03;;;11.95;98.79
8705;BME280;4389;41.932;25.904;2022-12-18T09:16:33;101696.25;;;11.93;99.18
8705;BME280;4389;41.932;25.904;2022-12-18T09:19:01;101688.56;;;12.01;98.70
8705;BME280;4389;41.932;25.904;2022-12-18T09:21:30;101696.06;;;12.07;97.29
8705;BME280;4389;41.932;25.904;2022-12-18T09:23:59;101688.84;;;12.09;97.32
8705;BME280;4389;41.932;25.904;2022-12-18T09:26:27;101685.97;;;12.12;96.60
8705;BME280;4389;41.932;25.904;2022-12-18T09:28:54;101683.78;;;12.17;97.90
8705;BME280;4389;41.932;25.904;2022-12-18T09:31:22;101683.97;;;11.92;98.60
8705;BME280;4389;41.932;25.904;2022-12-18T09:33:49;101677.19;;;11.88;98.34
8705;BME280;4389;41.932;25.904;2022-12-18T09:36:17;101675.28;;;11.90;99.21
8705;BME280;4389;41.932;25.904;2022-12-18T09:38:44;101682.72;;;11.85;98.77
8705;BME280;4389;41.932;25.904;2022-12-18T09:41:25;101693.72;;;11.92;99.70
8705;BME280;4389;41.932;25.904;2022-12-18T09:43:59;101687.34;;;11.94;99.75
8705;BME280;4389;41.932;25.904;2022-12-18T09:46:30;101689.53;;;12.00;99.95
8705;BME280;4389;41.932;25.904;2022-12-18T09:49:00;101694.91;;;12.11;100.00
8705;BME280;4389;41.932;25.904;2022-12-18T09:51:32;101698.47;;;12.10;99.58
8705;BME280;4389;41.932;25.904;2022-12-18T09:54:04;101702.88;;;12.22;100.00
8705;BME280;4389;41.932;25.904;2022-12-18T09:56:35;101693.38;;;12.31;100.00
8705;BME280;4389;41.932;25.904;2022-12-18T09:59:04;101689.72;;;12.21;100.00
8705;BME280;4389;41.932;25.904;2022-12-18T10:01:32;101694.94;;;11.99;100.00
8705;BME280;4389;41.932;25.904;2022-12-18T10:03:59;101688.31;;;11.93;100.00
8705;BME280;4389;41.932;25.904;2022-12-18T10:06:33;101685.88;;;11.90;100.00
8705;BME280;4389;41.932;25.904;2022-12-18T10:09:08;101685.19;;;11.99;100.00
8705;BME280;4389;41.932;25.904;2022-12-18T10:11:44;101687.59;;;11.91;100.00
8705;BME280;4389;41.932;25.904;2022-12-18T10:14:19;101688.53;;;11.90;100.00
8705;BME280;4389;41.932;25.904;2022-12-18T10:16:56;101690.44;;;11.88;100.00
8705;BME280;4389;41.932;25.904;2022-12-18T10:19:37;101691.84;;;11.81;100.00
8705;BME280;4389;41.932;25.904;2022-12-18T10:22:14;101692.25;;;11.88;100.00
8705;BME280;4389;41.932;25.904;2022-12-18T10:24:47;101689.44;;;11.78;100.00
8705;BME280;4389;41.932;25.904;2022-12-18T10:27:22;101691.94;;;11.69;100.00
8705;BME280;4389;41.932;25.904;2022-12-18T10:29:50;101694.91;;;11.64;100.00
8705;BME280;4389;41.932;25.904;2022-12-18T10:32:18;101695.56;;;11.55;100.00
8705;BME280;4389;41.932;25.904;2022-12-18T10:34:46;101698.22;;;11.55;100.00
8705;BME280;4389;41.932;25.904;2022-12-18T10:37:16;101701.00;;;11.77;100.00
8705;BME280;4389;41.932;25.904;2022-12-18T10:39:44;101689.72;;;11.86;100.00
8705;BME280;4389;41.932;25.904;2022-12-18T10:42:16;101688.47;;;11.79;100.00
8705;BME280;4389;41.932;25.904;2022-12-18T10:44:45;101691.41;;;11.87;100.00
8705;BME280;4389;41.932;25.904;2022-12-18T10:47:15;101685.41;;;11.96;100.00
8705;BME280;4389;41.932;25.904;2022-12-18T10:49:48;101690.50;;;11.99;100.00
8705;BME280;4389;41.932;25.904;2022-12-18T10:52:18;101687.59;;;11.91;100.00
8705;BME280;4389;41.932;25.904;2022-12-18T10:54:49;101691.19;;;11.90;100.00
8705;BME280;4389;41.932;25.904;2022-12-18T10:57:32;101694.13;;;11.98;100.00
8705;BME280;4389;41.932;25.904;2022-12-18T11:00:23;101700.66;;;12.05;100.00
8705;BME280;4389;41.932;25.904;2022-12-18T11:02:50;101697.50;;;12.00;100.00
8705;BME280;4389;41.932;25.904;2022-12-18T11:05:28;101692.47;;;11.85;100.00
8705;BME280;4389;41.932;25.904;2022-12-18T11:07:56;101703.53;;;11.79;100.00
8705;BME280;4389;41.932;25.904;2022-12-18T11:10:28;101704.84;;;11.73;100.00
8705;BME280;4389;41.932;25.904;2022-12-18T11:13:10;101714.38;;;11.76;100.00
8705;BME280;4389;41.932;25.904;2022-12-18T11:15:40;101721.19;;;11.67;100.00
8705;BME280;4389;41.932;25.904;2022-12-18T11:18:16;101717.81;;;11.65;100.00
8705;BME280;4389;41.932;25.904;2022-12-18T11:20:50;101706.53;;;11.74;100.00
8705;BME280;4389;41.932;25.904;2022-12-18T11:23:19;101721.00;;;11.58;100.00
8705;BME280;4389;41.932;25.904;2022-12-18T11:25:53;101718.47;;;11.56;100.00
8705;BME280;4389;41.932;25.904;2022-12-18T11:28:29;101721.88;;;11.58;100.00
8705;BME280;4389;41.932;25.904;2022-12-18T11:31:27;101718.53;;;11.67;100.00
8705;BME280;4389;41.932;25.904;2022-12-18T11:34:00;101725.03;;;11.63;100.00
8705;BME280;4389;41.932;25.904;2022-12-18T11:36:32;101722.50;;;11.85;100.00
8705;BME280;4389;41.932;25.904;2022-12-18T11:39:05;101712.88;;;11.84;100.00
8705;BME280;4389;41.932;25.904;2022-12-18T11:41:39;101723.75;;;11.69;100.00
8705;BME280;4389;41.932;25.904;2022-12-18T11:44:28;101728.41;;;11.65;100.00
8705;BME280;4389;41.932;25.904;2022-12-18T11:47:03;101723.56;;;11.59;100.00
8705;BME280;4389;41.932;25.904;2022-12-18T11:49:35;101724.59;;;11.69;100.00
8705;BME280;4389;41.932;25.904;2022-12-18T11:52:09;101729.66;;;11.72;100.00
8705;BME280;4389;41.932;25.904;2022-12-18T11:54:36;101728.41;;;11.65;100.00
8705;BME280;4389;41.932;25.904;2022-12-18T11:57:09;101730.34;;;11.63;100.00
8705;BME280;4389;41.932;25.904;2022-12-18T11:59:49;101734.72;;;11.75;100.00
8705;BME280;4389;41.932;25.904;2022-12-18T12:02:42;101725.50;;;11.81;100.00
8705;BME280;4389;41.932;25.904;2022-12-18T12:05:25;101731.34;;;11.73;100.00
8705;BME280;4389;41.932;25.904;2022-12-18T12:08:01;101728.53;;;11.87;100.00
8705;BME280;4389;41.932;25.904;2022-12-18T12:10:39;101727.38;;;12.02;100.00
8705;BME280;4389;41.932;25.904;2022-12-18T12:13:22;101731.41;;;12.08;100.00
8705;BME280;4389;41.932;25.904;2022-12-18T12:16:01;101725.34;;;11.95;100.00
8705;BME280;4389;41.932;25.904;2022-12-18T12:18:41;101729.78;;;11.94;100.00
8705;BME280;4389;41.932;25.904;2022-12-18T12:21:17;101729.59;;;12.08;100.00
8705;BME280;4389;41.932;25.904;2022-12-18T12:23:52;101735.13;;;12.05;100.00
8705;BME280;4389;41.932;25.904;2022-12-18T12:26:29;101736.94;;;12.05;98.96
8705;BME280;4389;41.932;25.904;2022-12-18T12:29:13;101730.81;;;12.04;98.08
8705;BME280;4389;41.932;25.904;2022-12-18T12:31:56;101737.56;;;12.08;97.39
8705;BME280;4389;41.932;25.904;2022-12-18T12:34:34;101745.84;;;12.04;96.84
8705;BME280;4389;41.932;25.904;2022-12-18T12:37:15;101749.84;;;12.09;97.59
8705;BME280;4389;41.932;25.904;2022-12-18T12:39:46;101749.81;;;11.98;97.67
8705;BME280;4389;41.932;25.904;2022-12-18T12:42:18;101752.47;;;11.98;96.73
8705;BME280;4389;41.932;25.904;2022-12-18T12:45:06;101752.69;;;11.95;96.53
8705;BME280;4389;41.932;25.904;2022-12-18T12:47:42;101761.84;;;11.91;96.95
8705;BME280;4389;41.932;25.904;2022-12-18T12:50:16;101761.78;;;11.80;95.87
8705;BME280;4389;41.932;25.904;2022-12-18T12:52:46;101767.59;;;11.85;95.63
8705;BME280;4389;41.932;25.904;2022-12-18T12:55:17;101774.69;;;11.85;95.08
8705;BME280;4389;41.932;25.904;2022-12-18T12:57:50;101772.03;;;11.85;94.74
8705;BME280;4389;41.932;25.904;2022-12-18T13:00:20;101779.38;;;11.81;95.90
8705;BME280;4389;41.932;25.904;2022-12-18T13:02:52;101789.00;;;11.82;96.71
8705;BME280;4389;41.932;25.904;2022-12-18T13:05:26;101794.31;;;11.82;97.21
8705;BME280;4389;41.932;25.904;2022-12-18T13:07:59;101798.88;;;11.80;97.90